East Enosburg, Vermont
Current Conditions -  °F | °C
As of 12:35 AM on Sunday 26 Oct 2014 (Local Time) from KFSO Reporting Station
Light Rain Light Rain  
Wind Chill: 11°   Ceiling: 3400
Heat Index: 11°   Visibility: 10mi
Dew Point:   Wind: 3mph
Humidity: 86%   Direction: 280°W
Pressure: 29.42"   Gusts: NA
Location:  44.8764°N, 72.758°W
Report Text: KFSO 260435Z AUTO 28003KT 10SM -RA SCT026 BKN034 OVC090 11/09 A2942 RMK AO2 T01070085
Loading
Personal Weather Stations






























Interactive Weather Map
Tropical Storm Tracking
New forecast layout! Learn more

10-Day Weather Forecast

Advertisements
Track Severe Weather on mobile